KPCM

Details ICAO KPCM
Name Plant City Muni
Region United States
Timezone America/New_York (UTC-5.0)
Plans Departing 4
Arriving 1
Stats Elevation 154 ft / 47 m (AMSL)
Location 28.000156° -82.163311°
Runways 1
Magnetic Variation 5.796° W
Sunrise 2017-12-17 12:15:10 UTC / 2017-12-17 07:15:10 Local
Sunset 2017-12-17 22:37:20 UTC / 2017-12-17 17:37:20 Local
Advertisement - Login to hide

Runways

ID Width Length Bearing (true) Bearing (mag) Surface Threshold Offset Overrun Length
10 75 ft / 23 m 3,944 ft / 1,202 m 94.24° 100.04° Asphalt 200 ft / 61 m 0 ft / 0 m
28 75 ft / 23 m 3,944 ft / 1,202 m 274.25° 280.05° Asphalt 0 ft / 0 m 0 ft / 0 m

Map

Weather


0- 5 10 15 20 25 30 35+ Temperature / ° C

Clouds and Precipitation
Forecast for 2017-12-18 06:00 UTC. Updated 6 minutes ago

Ground ~20,000 ft ~40,000 ft Winds

METAR

KPCM 180115Z AUTO 00000KT 10SM CLR 18/16 A3025 RMK AO2

TAF

Not found

Frequencies

Recorded 120.02 MHz AWOS 3
Approach 120.65 MHz TAMPA APP/DEP
Unicom 123.00 MHz CTAF/UNICOM
Approach 119.90 MHz TAMPA APP/DEP
Warning: Do not use this data for real-world aviation or navigation. No guarantee of current accuracy is given.